sensor_id;sensor_type;location;lat;lon;timestamp;pressure;altitude;pressure_sealevel;temperature;humidity
43553;BME280;29153;42.696;23.218;2022-11-18T00:00:18;93468.63;;;5.24;100.00
43553;BME280;29153;42.696;23.218;2022-11-18T00:02:46;93461.80;;;5.25;100.00
43553;BME280;29153;42.696;23.218;2022-11-18T00:05:14;93471.53;;;5.17;100.00
43553;BME280;29153;42.696;23.218;2022-11-18T00:07:41;93409.11;;;4.84;100.00
43553;BME280;29153;42.696;23.218;2022-11-18T00:10:09;93466.79;;;5.24;100.00
43553;BME280;29153;42.696;23.218;2022-11-18T00:12:36;93457.06;;;5.22;100.00
43553;BME280;29153;42.696;23.218;2022-11-18T00:15:22;93455.52;;;5.16;100.00
43553;BME280;29153;42.696;23.218;2022-11-18T00:17:49;93460.50;;;5.20;100.00
43553;BME280;29153;42.696;23.218;2022-11-18T00:20:17;93459.69;;;5.27;100.00
43553;BME280;29153;42.696;23.218;2022-11-18T00:22:45;93467.33;;;5.16;100.00
43553;BME280;29153;42.696;23.218;2022-11-18T00:25:12;93468.67;;;5.03;100.00
43553;BME280;29153;42.696;23.218;2022-11-18T00:27:40;93471.81;;;5.13;100.00
43553;BME280;29153;42.696;23.218;2022-11-18T00:30:08;93462.61;;;5.05;100.00
43553;BME280;29153;42.696;23.218;2022-11-18T00:32:36;93465.00;;;5.04;100.00
43553;BME280;29153;42.696;23.218;2022-11-18T00:35:04;93435.64;;;4.70;100.00
43553;BME280;29153;42.696;23.218;2022-11-18T00:37:33;93463.44;;;4.91;100.00
43553;BME280;29153;42.696;23.218;2022-11-18T00:40:00;93458.70;;;4.85;100.00
43553;BME280;29153;42.696;23.218;2022-11-18T00:42:28;93461.07;;;4.77;100.00
43553;BME280;29153;42.696;23.218;2022-11-18T00:45:13;93466.85;;;4.74;100.00
43553;BME280;29153;42.696;23.218;2022-11-18T00:47:41;93466.59;;;4.78;100.00
43553;BME280;29153;42.696;23.218;2022-11-18T00:50:09;93469.48;;;4.74;100.00
43553;BME280;29153;42.696;23.218;2022-11-18T00:52:36;93471.06;;;4.75;100.00
43553;BME280;29153;42.696;23.218;2022-11-18T00:55:04;93469.75;;;4.75;100.00
43553;BME280;29153;42.696;23.218;2022-11-18T00:57:32;93474.72;;;4.74;100.00
43553;BME280;29153;42.696;23.218;2022-11-18T00:59:59;93471.84;;;4.70;100.00
43553;BME280;29153;42.696;23.218;2022-11-18T01:02:27;93472.35;;;4.59;100.00
43553;BME280;29153;42.696;23.218;2022-11-18T01:04:54;93470.79;;;4.53;100.00
43553;BME280;29153;42.696;23.218;2022-11-18T01:07:22;93473.39;;;4.58;100.00
43553;BME280;29153;42.696;23.218;2022-11-18T01:09:49;93471.83;;;4.47;100.00
43553;BME280;29153;42.696;23.218;2022-11-18T01:12:17;93473.38;;;4.46;100.00
43553;BME280;29153;42.696;23.218;2022-11-18T01:15:01;93466.31;;;4.46;100.00
43553;BME280;29153;42.696;23.218;2022-11-18T01:17:30;93475.23;;;4.43;100.00
43553;BME280;29153;42.696;23.218;2022-11-18T01:19:58;93473.91;;;4.43;100.00
43553;BME280;29153;42.696;23.218;2022-11-18T01:22:25;93461.59;;;4.43;100.00
43553;BME280;29153;42.696;23.218;2022-11-18T01:24:53;93476.80;;;4.36;100.00
43553;BME280;29153;42.696;23.218;2022-11-18T01:27:20;93468.15;;;4.36;100.00
43553;BME280;29153;42.696;23.218;2022-11-18T01:29:47;93478.90;;;4.39;100.00
43553;BME280;29153;42.696;23.218;2022-11-18T01:32:15;93461.86;;;4.47;100.00
43553;BME280;29153;42.696;23.218;2022-11-18T01:34:43;93475.77;;;4.52;100.00
43553;BME280;29153;42.696;23.218;2022-11-18T01:37:10;93464.21;;;4.58;100.00
43553;BME280;29153;42.696;23.218;2022-11-18T01:39:38;93470.50;;;4.50;100.00
43553;BME280;29153;42.696;23.218;2022-11-18T01:42:13;93472.61;;;4.55;100.00
43553;BME280;29153;42.696;23.218;2022-11-18T01:45:05;93466.31;;;4.54;100.00
43553;BME280;29153;42.696;23.218;2022-11-18T01:47:42;93471.31;;;4.61;100.00
43553;BME280;29153;42.696;23.218;2022-11-18T01:50:10;93462.66;;;4.57;100.00
43553;BME280;29153;42.696;23.218;2022-11-18T01:52:39;93467.37;;;4.68;100.00
43553;BME280;29153;42.696;23.218;2022-11-18T01:55:15;93473.66;;;4.72;100.00
43553;BME280;29153;42.696;23.218;2022-11-18T01:57:40;93462.66;;;4.78;100.00
43553;BME280;29153;42.696;23.218;2022-11-18T02:00:09;93454.27;;;4.83;100.00
43553;BME280;29153;42.696;23.218;2022-11-18T02:02:37;93459.23;;;4.95;100.00
43553;BME280;29153;42.696;23.218;2022-11-18T02:05:06;93458.44;;;4.99;100.00
43553;BME280;29153;42.696;23.218;2022-11-18T02:07:36;93463.14;;;5.18;100.00
43553;BME280;29153;42.696;23.218;2022-11-18T02:10:05;93458.38;;;5.22;100.00
43553;BME280;29153;42.696;23.218;2022-11-18T02:12:32;93463.34;;;5.31;100.00
43553;BME280;29153;42.696;23.218;2022-11-18T02:15:01;93461.74;;;5.45;100.00
43553;BME280;29153;42.696;23.218;2022-11-18T02:20:12;93458.01;;;5.62;100.00
43553;BME280;29153;42.696;23.218;2022-11-18T02:31:35;93456.60;;;5.82;100.00
43553;BME280;29153;42.696;23.218;2022-11-18T02:39:43;93447.41;;;5.87;100.00
43553;BME280;29153;42.696;23.218;2022-11-18T02:42:10;93453.49;;;5.75;100.00
43553;BME280;29153;42.696;23.218;2022-11-18T02:44:41;93456.13;;;5.70;100.00
43553;BME280;29153;42.696;23.218;2022-11-18T02:47:10;93453.50;;;5.70;100.00
43553;BME280;29153;42.696;23.218;2022-11-18T02:49:42;93452.45;;;5.71;100.00
43553;BME280;29153;42.696;23.218;2022-11-18T02:52:11;93453.03;;;5.58;100.00
43553;BME280;29153;42.696;23.218;2022-11-18T02:54:40;93453.03;;;5.58;100.00
43553;BME280;29153;42.696;23.218;2022-11-18T02:57:09;93456.21;;;5.49;100.00
43553;BME280;29153;42.696;23.218;2022-11-18T02:59:37;93451.50;;;5.44;100.00
43553;BME280;29153;42.696;23.218;2022-11-18T03:02:05;93456.80;;;5.34;100.00
43553;BME280;29153;42.696;23.218;2022-11-18T03:04:34;93457.82;;;5.35;100.00
43553;BME280;29153;42.696;23.218;2022-11-18T03:09:40;93451.31;;;5.15;100.00
43553;BME280;29153;42.696;23.218;2022-11-18T03:18:05;93453.98;;;4.95;100.00
43553;BME280;29153;42.696;23.218;2022-11-18T03:20:41;93451.61;;;4.93;100.00
43553;BME280;29153;42.696;23.218;2022-11-18T03:23:17;93447.94;;;4.94;100.00
43553;BME280;29153;42.696;23.218;2022-11-18T03:25:51;93453.20;;;4.87;100.00
43553;BME280;29153;42.696;23.218;2022-11-18T03:33:37;93450.58;;;4.92;100.00
43553;BME280;29153;42.696;23.218;2022-11-18T03:36:08;93450.84;;;4.95;100.00
43553;BME280;29153;42.696;23.218;2022-11-18T03:38:39;93454.50;;;4.99;100.00
43553;BME280;29153;42.696;23.218;2022-11-18T03:41:09;93458.16;;;5.06;100.00
43553;BME280;29153;42.696;23.218;2022-11-18T03:43:40;93448.69;;;5.20;100.00
43553;BME280;29153;42.696;23.218;2022-11-18T03:46:10;93452.86;;;5.26;100.00
43553;BME280;29153;42.696;23.218;2022-11-18T03:48:47;93433.97;;;5.29;100.00
43553;BME280;29153;42.696;23.218;2022-11-18T03:51:13;93434.47;;;5.31;100.00
43553;BME280;29153;42.696;23.218;2022-11-18T03:53:46;93436.80;;;5.45;100.00
43553;BME280;29153;42.696;23.218;2022-11-18T03:56:19;93429.70;;;5.46;100.00
43553;BME280;29153;42.696;23.218;2022-11-18T03:58:53;93423.93;;;5.46;100.00
43553;BME280;29153;42.696;23.218;2022-11-18T04:01:32;93424.66;;;5.57;100.00
43553;BME280;29153;42.696;23.218;2022-11-18T04:03:55;93428.83;;;5.66;100.00
43553;BME280;29153;42.696;23.218;2022-11-18T04:06:31;93425.68;;;5.66;100.00
43553;BME280;29153;42.696;23.218;2022-11-18T04:09:00;93428.05;;;5.68;100.00
43553;BME280;29153;42.696;23.218;2022-11-18T04:11:30;93430.13;;;5.71;100.00
43553;BME280;29153;42.696;23.218;2022-11-18T04:14:18;93433.81;;;5.72;100.00
43553;BME280;29153;42.696;23.218;2022-11-18T04:16:49;93427.98;;;5.80;100.00
43553;BME280;29153;42.696;23.218;2022-11-18T04:19:16;93431.70;;;5.72;100.00
43553;BME280;29153;42.696;23.218;2022-11-18T04:21:45;93435.36;;;5.76;100.00
43553;BME280;29153;42.696;23.218;2022-11-18T04:24:14;93436.89;;;5.82;100.00
43553;BME280;29153;42.696;23.218;2022-11-18T04:26:42;93435.28;;;5.96;100.00
43553;BME280;29153;42.696;23.218;2022-11-18T04:29:09;93433.16;;;6.03;100.00
43553;BME280;29153;42.696;23.218;2022-11-18T04:31:37;93437.31;;;6.09;100.00
43553;BME280;29153;42.696;23.218;2022-11-18T04:34:05;93437.87;;;6.06;100.00
43553;BME280;29153;42.696;23.218;2022-11-18T04:36:32;93440.21;;;6.10;100.00
43553;BME280;29153;42.696;23.218;2022-11-18T04:39:00;93447.55;;;6.13;100.00
43553;BME280;29153;42.696;23.218;2022-11-18T04:41:28;93450.91;;;6.21;100.00
43553;BME280;29153;42.696;23.218;2022-11-18T04:44:13;93457.25;;;6.20;100.00
43553;BME280;29153;42.696;23.218;2022-11-18T04:46:41;93462.48;;;6.23;100.00
43553;BME280;29153;42.696;23.218;2022-11-18T04:49:11;93450.89;;;6.26;100.00
43553;BME280;29153;42.696;23.218;2022-11-18T04:51:40;93465.09;;;6.25;100.00
43553;BME280;29153;42.696;23.218;2022-11-18T04:54:08;93463.56;;;6.19;100.00
43553;BME280;29153;42.696;23.218;2022-11-18T04:56:36;93468.51;;;6.28;100.00
43553;BME280;29153;42.696;23.218;2022-11-18T04:59:05;93471.63;;;6.30;100.00
43553;BME280;29153;42.696;23.218;2022-11-18T05:01:33;93462.64;;;6.42;100.00
43553;BME280;29153;42.696;23.218;2022-11-18T05:04:01;93457.88;;;6.44;100.00
43553;BME280;29153;42.696;23.218;2022-11-18T05:06:29;93466.03;;;6.42;100.00
43553;BME280;29153;42.696;23.218;2022-11-18T05:08:57;93458.44;;;6.40;100.00
43553;BME280;29153;42.696;23.218;2022-11-18T05:11:26;93466.33;;;6.40;100.00
43553;BME280;29153;42.696;23.218;2022-11-18T05:14:12;93452.33;;;6.48;100.00
43553;BME280;29153;42.696;23.218;2022-11-18T05:16:40;93455.75;;;6.48;100.00
43553;BME280;29153;42.696;23.218;2022-11-18T05:19:08;93459.42;;;6.50;100.00
43553;BME280;29153;42.696;23.218;2022-11-18T05:21:36;93472.72;;;6.66;100.00
43553;BME280;29153;42.696;23.218;2022-11-18T05:24:04;93460.36;;;6.64;100.00
43553;BME280;29153;42.696;23.218;2022-11-18T05:26:32;93471.94;;;6.65;100.00
43553;BME280;29153;42.696;23.218;2022-11-18T05:28:59;93462.46;;;6.67;100.00
43553;BME280;29153;42.696;23.218;2022-11-18T05:31:27;93466.34;;;6.72;100.00
43553;BME280;29153;42.696;23.218;2022-11-18T05:33:55;93467.63;;;6.79;100.00
43553;BME280;29153;42.696;23.218;2022-11-18T05:36:22;93469.14;;;6.85;100.00
43553;BME280;29153;42.696;23.218;2022-11-18T05:38:50;93457.78;;;6.93;100.00
43553;BME280;29153;42.696;23.218;2022-11-18T05:41:18;93475.19;;;6.86;100.00
43553;BME280;29153;42.696;23.218;2022-11-18T05:44:04;93475.16;;;6.91;100.00
43553;BME280;29153;42.696;23.218;2022-11-18T05:46:31;93460.16;;;6.92;100.00
43553;BME280;29153;42.696;23.218;2022-11-18T05:48:59;93463.47;;;7.02;100.00
43553;BME280;29153;42.696;23.218;2022-11-18T05:51:27;93458.98;;;7.05;100.00
43553;BME280;29153;42.696;23.218;2022-11-18T05:53:55;93471.06;;;7.09;100.00
43553;BME280;29153;42.696;23.218;2022-11-18T05:56:28;93458.88;;;7.15;100.00
43553;BME280;29153;42.696;23.218;2022-11-18T05:58:56;93462.81;;;7.18;100.00
43553;BME280;29153;42.696;23.218;2022-11-18T06:01:35;93457.55;;;7.15;100.00
43553;BME280;29153;42.696;23.218;2022-11-18T06:04:07;93462.03;;;7.17;100.00
43553;BME280;29153;42.696;23.218;2022-11-18T06:06:33;93468.49;;;7.27;100.00
43553;BME280;29153;42.696;23.218;2022-11-18T06:09:04;93464.54;;;7.30;100.00
43553;BME280;29153;42.696;23.218;2022-11-18T06:11:36;93464.80;;;7.31;100.00
43553;BME280;29153;42.696;23.218;2022-11-18T06:14:05;93465.33;;;7.30;100.00
43553;BME280;29153;42.696;23.218;2022-11-18T06:16:33;93459.53;;;7.28;100.00
43553;BME280;29153;42.696;23.218;2022-11-18T06:19:03;93464.19;;;7.37;100.00
43553;BME280;29153;42.696;23.218;2022-11-18T06:21:30;93461.33;;;7.36;100.00
43553;BME280;29153;42.696;23.218;2022-11-18T06:23:59;93461.69;;;7.50;100.00
43553;BME280;29153;42.696;23.218;2022-11-18T06:26:28;93461.64;;;7.29;100.00
43553;BME280;29153;42.696;23.218;2022-11-18T06:28:56;93457.25;;;7.46;100.00
43553;BME280;29153;42.696;23.218;2022-11-18T06:31:23;93459.27;;;7.56;100.00
43553;BME280;29153;42.696;23.218;2022-11-18T06:33:51;93456.31;;;7.60;100.00
43553;BME280;29153;42.696;23.218;2022-11-18T06:36:18;93456.80;;;7.65;100.00
43553;BME280;29153;42.696;23.218;2022-11-18T06:38:46;93454.95;;;7.63;100.00
43553;BME280;29153;42.696;23.218;2022-11-18T06:41:13;93446.00;;;7.85;100.00
43553;BME280;29153;42.696;23.218;2022-11-18T06:43:41;93453.33;;;7.91;100.00
43553;BME280;29153;42.696;23.218;2022-11-18T06:46:15;93442.15;;;7.99;100.00
43553;BME280;29153;42.696;23.218;2022-11-18T06:48:57;93444.11;;;8.09;100.00
43553;BME280;29153;42.696;23.218;2022-11-18T06:51:25;93442.88;;;8.04;100.00
43553;BME280;29153;42.696;23.218;2022-11-18T06:53:53;93439.02;;;8.15;100.00
43553;BME280;29153;42.696;23.218;2022-11-18T06:56:22;93448.00;;;7.96;100.00
43553;BME280;29153;42.696;23.218;2022-11-18T06:58:54;93452.79;;;8.12;100.00
43553;BME280;29153;42.696;23.218;2022-11-18T07:01:25;93453.06;;;7.90;100.00
43553;BME280;29153;42.696;23.218;2022-11-18T07:03:53;93455.96;;;7.91;100.00
43553;BME280;29153;42.696;23.218;2022-11-18T07:06:22;93466.47;;;7.93;100.00
43553;BME280;29153;42.696;23.218;2022-11-18T07:08:51;93461.22;;;7.69;100.00
43553;BME280;29153;42.696;23.218;2022-11-18T07:11:21;93460.03;;;7.81;100.00
43553;BME280;29153;42.696;23.218;2022-11-18T07:13:49;93450.07;;;7.96;100.00
43553;BME280;29153;42.696;23.218;2022-11-18T07:16:19;93444.42;;;8.05;100.00
43553;BME280;29153;42.696;23.218;2022-11-18T07:18:48;93439.72;;;8.02;100.00
43553;BME280;29153;42.696;23.218;2022-11-18T07:21:18;93427.64;;;8.17;100.00
43553;BME280;29153;42.696;23.218;2022-11-18T07:23:47;93428.30;;;8.28;100.00
43553;BME280;29153;42.696;23.218;2022-11-18T07:26:15;93424.42;;;8.04;100.00
43553;BME280;29153;42.696;23.218;2022-11-18T07:28:43;93431.30;;;8.00;100.00
43553;BME280;29153;42.696;23.218;2022-11-18T07:31:13;93428.14;;;7.79;100.00
43553;BME280;29153;42.696;23.218;2022-11-18T07:33:43;93431.13;;;7.73;100.00
43553;BME280;29153;42.696;23.218;2022-11-18T07:36:13;93430.30;;;7.96;100.00
43553;BME280;29153;42.696;23.218;2022-11-18T07:38:41;93421.14;;;8.12;100.00
43553;BME280;29153;42.696;23.218;2022-11-18T07:41:11;93425.90;;;8.32;100.00
43553;BME280;29153;42.696;23.218;2022-11-18T07:43:39;93428.16;;;8.19;100.00
43553;BME280;29153;42.696;23.218;2022-11-18T07:48:51;93432.75;;;8.51;100.00
43553;BME280;29153;42.696;23.218;2022-11-18T07:51:22;93445.81;;;8.43;100.00
43553;BME280;29153;42.696;23.218;2022-11-18T07:53:50;93446.87;;;8.42;100.00
43553;BME280;29153;42.696;23.218;2022-11-18T07:56:17;93435.92;;;8.32;100.00
43553;BME280;29153;42.696;23.218;2022-11-18T07:58:45;93449.72;;;8.45;100.00
43553;BME280;29153;42.696;23.218;2022-11-18T08:01:19;93452.31;;;8.27;100.00
43553;BME280;29153;42.696;23.218;2022-11-18T08:03:44;93454.47;;;8.46;100.00
43553;BME280;29153;42.696;23.218;2022-11-18T08:06:14;93455.59;;;8.40;100.00
43553;BME280;29153;42.696;23.218;2022-11-18T08:08:43;93461.34;;;8.63;100.00
43553;BME280;29153;42.696;23.218;2022-11-18T08:11:17;93460.43;;;8.70;100.00
43553;BME280;29153;42.696;23.218;2022-11-18T08:13:40;93457.39;;;8.79;100.00
43553;BME280;29153;42.696;23.218;2022-11-18T08:16:13;93458.58;;;8.87;100.00
43553;BME280;29153;42.696;23.218;2022-11-18T08:18:41;93448.20;;;8.93;100.00
43553;BME280;29153;42.696;23.218;2022-11-18T08:21:10;93456.70;;;8.90;100.00
43553;BME280;29153;42.696;23.218;2022-11-18T08:23:38;93447.48;;;9.03;100.00
43553;BME280;29153;42.696;23.218;2022-11-18T08:26:08;93440.88;;;9.03;100.00
43553;BME280;29153;42.696;23.218;2022-11-18T08:28:36;93433.78;;;9.18;100.00
43553;BME280;29153;42.696;23.218;2022-11-18T08:31:12;93428.41;;;9.23;100.00
43553;BME280;29153;42.696;23.218;2022-11-18T08:33:40;93418.88;;;9.38;100.00
43553;BME280;29153;42.696;23.218;2022-11-18T08:36:11;93418.77;;;9.29;100.00
43553;BME280;29153;42.696;23.218;2022-11-18T08:38:38;93417.13;;;9.47;100.00
43553;BME280;29153;42.696;23.218;2022-11-18T08:41:05;93413.55;;;9.68;100.00
43553;BME280;29153;42.696;23.218;2022-11-18T08:43:36;93413.80;;;9.82;100.00
43553;BME280;29153;42.696;23.218;2022-11-18T08:46:04;93411.19;;;9.80;100.00
43553;BME280;29153;42.696;23.218;2022-11-18T08:48:31;93391.69;;;9.89;100.00
43553;BME280;29153;42.696;23.218;2022-11-18T08:50:59;93398.03;;;9.77;100.00
43553;BME280;29153;42.696;23.218;2022-11-18T08:53:27;93376.95;;;9.86;100.00
43553;BME280;29153;42.696;23.218;2022-11-18T08:55:57;93388.55;;;10.01;100.00
43553;BME280;29153;42.696;23.218;2022-11-18T08:58:25;93375.59;;;10.13;100.00
43553;BME280;29153;42.696;23.218;2022-11-18T09:00:53;93359.39;;;10.15;100.00
43553;BME280;29153;42.696;23.218;2022-11-18T09:03:21;93370.58;;;10.25;100.00
43553;BME280;29153;42.696;23.218;2022-11-18T09:05:49;93343.41;;;10.56;100.00
43553;BME280;29153;42.696;23.218;2022-11-18T09:08:17;93343.41;;;10.56;100.00
43553;BME280;29153;42.696;23.218;2022-11-18T09:10:45;93358.33;;;10.52;100.00
43553;BME280;29153;42.696;23.218;2022-11-18T09:13:12;93364.27;;;10.57;100.00
43553;BME280;29153;42.696;23.218;2022-11-18T09:15:40;93369.95;;;10.64;100.00
43553;BME280;29153;42.696;23.218;2022-11-18T09:18:08;93359.98;;;10.70;100.00
43553;BME280;29153;42.696;23.218;2022-11-18T09:20:35;93356.81;;;10.81;100.00
43553;BME280;29153;42.696;23.218;2022-11-18T09:23:02;93351.48;;;10.92;100.00
43553;BME280;29153;42.696;23.218;2022-11-18T09:25:30;93348.17;;;10.98;100.00
43553;BME280;29153;42.696;23.218;2022-11-18T09:27:57;93348.17;;;10.98;100.00
43553;BME280;29153;42.696;23.218;2022-11-18T09:30:24;93338.36;;;10.99;100.00
43553;BME280;29153;42.696;23.218;2022-11-18T09:32:52;93333.72;;;11.24;100.00
43553;BME280;29153;42.696;23.218;2022-11-18T09:35:20;93330.51;;;11.44;100.00
43553;BME280;29153;42.696;23.218;2022-11-18T09:37:47;93321.11;;;11.58;100.00
43553;BME280;29153;42.696;23.218;2022-11-18T09:40:16;93303.01;;;11.60;100.00
43553;BME280;29153;42.696;23.218;2022-11-18T09:43:03;93291.70;;;11.76;100.00
43553;BME280;29153;42.696;23.218;2022-11-18T09:45:34;93284.51;;;11.85;100.00
43553;BME280;29153;42.696;23.218;2022-11-18T09:48:19;93281.41;;;12.01;100.00
43553;BME280;29153;42.696;23.218;2022-11-18T09:50:49;93272.27;;;12.04;100.00
43553;BME280;29153;42.696;23.218;2022-11-18T09:53:24;93272.27;;;12.04;100.00
43553;BME280;29153;42.696;23.218;2022-11-18T09:55:54;93274.08;;;12.23;100.00
43553;BME280;29153;42.696;23.218;2022-11-18T09:58:35;93269.59;;;12.39;100.00
43553;BME280;29153;42.696;23.218;2022-11-18T10:01:13;93269.59;;;12.39;100.00
43553;BME280;29153;42.696;23.218;2022-11-18T10:03:40;93266.14;;;12.47;100.00
43553;BME280;29153;42.696;23.218;2022-11-18T10:06:20;93271.45;;;12.47;98.11
43553;BME280;29153;42.696;23.218;2022-11-18T10:11:34;93266.49;;;12.68;95.60
43553;BME280;29153;42.696;23.218;2022-11-18T10:14:03;93270.86;;;12.73;99.52
43553;BME280;29153;42.696;23.218;2022-11-18T10:19:24;93266.89;;;13.19;96.19
43553;BME280;29153;42.696;23.218;2022-11-18T10:22:31;93273.37;;;12.93;93.46
43553;BME280;29153;42.696;23.218;2022-11-18T10:24:57;93261.61;;;13.02;92.96
43553;BME280;29153;42.696;23.218;2022-11-18T10:27:37;93262.59;;;12.89;94.62
43553;BME280;29153;42.696;23.218;2022-11-18T10:30:09;93247.25;;;13.18;95.10
43553;BME280;29153;42.696;23.218;2022-11-18T10:32:33;93244.12;;;12.93;93.71
43553;BME280;29153;42.696;23.218;2022-11-18T10:35:00;93244.12;;;12.93;93.71
43553;BME280;29153;42.696;23.218;2022-11-18T10:37:33;93235.64;;;13.08;95.67
43553;BME280;29153;42.696;23.218;2022-11-18T10:40:04;93235.64;;;13.08;95.67
43553;BME280;29153;42.696;23.218;2022-11-18T10:42:34;93231.67;;;13.22;94.63
43553;BME280;29153;42.696;23.218;2022-11-18T10:48:01;93228.92;;;13.54;91.73
43553;BME280;29153;42.696;23.218;2022-11-18T10:50:36;93205.05;;;13.66;90.61
43553;BME280;29153;42.696;23.218;2022-11-18T10:53:00;93201.29;;;13.67;90.26
43553;BME280;29153;42.696;23.218;2022-11-18T10:55:28;93197.16;;;13.85;88.21
43553;BME280;29153;42.696;23.218;2022-11-18T10:58:08;93203.53;;;14.19;85.04
43553;BME280;29153;42.696;23.218;2022-11-18T11:00:44;93202.87;;;14.55;80.94
43553;BME280;29153;42.696;23.218;2022-11-18T11:03:26;93206.48;;;14.71;82.52
43553;BME280;29153;42.696;23.218;2022-11-18T11:06:14;93206.70;;;14.78;82.40
43553;BME280;29153;42.696;23.218;2022-11-18T11:08:50;93211.47;;;14.85;81.97
43553;BME280;29153;42.696;23.218;2022-11-18T11:11:24;93213.72;;;14.95;82.90
43553;BME280;29153;42.696;23.218;2022-11-18T11:16:55;93200.49;;;15.11;81.25
43553;BME280;29153;42.696;23.218;2022-11-18T11:19:12;93192.63;;;15.14;80.86
43553;BME280;29153;42.696;23.218;2022-11-18T11:21:41;93191.49;;;15.15;80.90
43553;BME280;29153;42.696;23.218;2022-11-18T11:24:10;93184.59;;;15.32;78.08
43553;BME280;29153;42.696;23.218;2022-11-18T11:26:45;93177.48;;;15.48;73.91
43553;BME280;29153;42.696;23.218;2022-11-18T11:38:58;93167.42;;;15.76;74.54
43553;BME280;29153;42.696;23.218;2022-11-18T11:40:38;93179.66;;;15.77;75.54
43553;BME280;29153;42.696;23.218;2022-11-18T11:43:24;93172.84;;;15.91;72.49
43553;BME280;29153;42.696;23.218;2022-11-18T11:52:01;93171.31;;;16.12;68.95
43553;BME280;29153;42.696;23.218;2022-11-18T11:54:30;93166.22;;;16.01;69.10
43553;BME280;29153;42.696;23.218;2022-11-18T11:57:11;93160.88;;;16.07;66.75
43553;BME280;29153;42.696;23.218;2022-11-18T12:04:51;93168.70;;;15.94;67.22
43553;BME280;29153;42.696;23.218;2022-11-18T12:07:21;93163.83;;;15.84;67.85
43553;BME280;29153;42.696;23.218;2022-11-18T12:18:19;93152.00;;;15.63;69.70
43553;BME280;29153;42.696;23.218;2022-11-18T12:20:48;93150.14;;;15.52;69.44
43553;BME280;29153;42.696;23.218;2022-11-18T12:23:27;93120.66;;;15.54;69.81
43553;BME280;29153;42.696;23.218;2022-11-18T12:26:07;93124.56;;;15.51;70.49
43553;BME280;29153;42.696;23.218;2022-11-18T12:28:39;93118.53;;;15.60;70.08
43553;BME280;29153;42.696;23.218;2022-11-18T12:33:53;93112.61;;;15.66;69.02
43553;BME280;29153;42.696;23.218;2022-11-18T12:36:30;93116.97;;;15.59;69.92
43553;BME280;29153;42.696;23.218;2022-11-18T12:44:29;93110.39;;;15.68;69.08
43553;BME280;29153;42.696;23.218;2022-11-18T12:46:58;93099.12;;;15.75;68.32
43553;BME280;29153;42.696;23.218;2022-11-18T12:51:58;93094.45;;;15.78;67.24
43553;BME280;29153;42.696;23.218;2022-11-18T12:54:33;93084.89;;;15.71;66.53
43553;BME280;29153;42.696;23.218;2022-11-18T12:57:26;93084.58;;;15.66;67.11
43553;BME280;29153;42.696;23.218;2022-11-18T12:59:35;93055.67;;;15.62;65.99
43553;BME280;29153;42.696;23.218;2022-11-18T13:04:40;93063.53;;;15.71;64.84
43553;BME280;29153;42.696;23.218;2022-11-18T13:07:10;93049.06;;;15.78;65.81
43553;BME280;29153;42.696;23.218;2022-11-18T13:09:56;93060.30;;;15.77;64.86
43553;BME280;29153;42.696;23.218;2022-11-18T13:12:28;93055.14;;;15.84;65.78
43553;BME280;29153;42.696;23.218;2022-11-18T13:14:57;93057.39;;;15.82;64.74
43553;BME280;29153;42.696;23.218;2022-11-18T13:17:44;93062.97;;;15.77;65.24
43553;BME280;29153;42.696;23.218;2022-11-18T13:20:25;93057.16;;;15.81;65.19
43553;BME280;29153;42.696;23.218;2022-11-18T13:23:01;93045.25;;;15.79;65.95
43553;BME280;29153;42.696;23.218;2022-11-18T13:34:31;93030.15;;;15.77;65.13
43553;BME280;29153;42.696;23.218;2022-11-18T13:37:00;93015.29;;;15.70;66.14
43553;BME280;29153;42.696;23.218;2022-11-18T13:39:30;93011.48;;;15.71;65.14
43553;BME280;29153;42.696;23.218;2022-11-18T13:42:00;93009.28;;;15.67;66.18
43553;BME280;29153;42.696;23.218;2022-11-18T13:44:32;92997.82;;;15.66;64.75
43553;BME280;29153;42.696;23.218;2022-11-18T13:49:59;93013.19;;;15.63;64.78
43553;BME280;29153;42.696;23.218;2022-11-18T13:52:38;93008.77;;;15.61;65.34
43553;BME280;29153;42.696;23.218;2022-11-18T13:55:10;93006.34;;;15.56;65.73
43553;BME280;29153;42.696;23.218;2022-11-18T13:57:33;93008.65;;;15.58;65.44
43553;BME280;29153;42.696;23.218;2022-11-18T14:00:05;93005.09;;;15.60;65.32
43553;BME280;29153;42.696;23.218;2022-11-18T14:02:38;92997.09;;;15.60;65.29
43553;BME280;29153;42.696;23.218;2022-11-18T14:05:14;92997.11;;;15.54;65.54
43553;BME280;29153;42.696;23.218;2022-11-18T14:07:38;93009.10;;;15.60;66.02
43553;BME280;29153;42.696;23.218;2022-11-18T14:10:09;93012.88;;;15.59;65.84
43553;BME280;29153;42.696;23.218;2022-11-18T14:12:37;93008.23;;;15.56;66.15
43553;BME280;29153;42.696;23.218;2022-11-18T14:17:57;93002.20;;;15.59;66.65
43553;BME280;29153;42.696;23.218;2022-11-18T14:20:28;93000.69;;;15.52;66.59
43553;BME280;29153;42.696;23.218;2022-11-18T14:23:00;93003.58;;;15.53;66.73
43553;BME280;29153;42.696;23.218;2022-11-18T14:25:30;93013.55;;;15.49;67.25
43553;BME280;29153;42.696;23.218;2022-11-18T14:28:10;93007.15;;;15.44;67.01
43553;BME280;29153;42.696;23.218;2022-11-18T14:30:40;93019.27;;;15.42;67.68
43553;BME280;29153;42.696;23.218;2022-11-18T14:33:16;93010.61;;;15.39;67.73
43553;BME280;29153;42.696;23.218;2022-11-18T14:35:54;93002.25;;;15.40;67.50
43553;BME280;29153;42.696;23.218;2022-11-18T14:38:28;93010.53;;;15.29;67.69
43553;BME280;29153;42.696;23.218;2022-11-18T14:40:57;93009.64;;;15.31;67.28
43553;BME280;29153;42.696;23.218;2022-11-18T14:43:26;93014.72;;;15.36;66.56
43553;BME280;29153;42.696;23.218;2022-11-18T14:45:57;93028.59;;;15.48;66.21
43553;BME280;29153;42.696;23.218;2022-11-18T14:48:24;93028.59;;;15.48;66.21